createdAt,value
2017-12-29T00:01:45.329Z,5.40
2017-12-29T00:04:13.093Z,6.87
2017-12-29T00:06:40.851Z,2.43
2017-12-29T00:09:08.637Z,5.50
2017-12-29T00:11:36.973Z,8.40
2017-12-29T00:14:05.245Z,3.03
2017-12-29T00:16:33.690Z,5.70
2017-12-29T00:19:01.205Z,5.17
2017-12-29T00:21:28.698Z,2.00
2017-12-29T00:23:58.157Z,4.60
2017-12-29T00:26:25.652Z,8.27
2017-12-29T00:28:53.174Z,11.23
2017-12-29T00:31:20.667Z,2.60
2017-12-29T00:33:48.160Z,3.47
2017-12-29T00:36:16.437Z,2.97
2017-12-29T00:38:44.692Z,2.33
2017-12-29T00:41:12.302Z,2.13
2017-12-29T00:43:40.269Z,3.00
2017-12-29T00:46:08.011Z,3.80
2017-12-29T00:48:35.716Z,3.10
2017-12-29T00:51:03.909Z,2.63
2017-12-29T00:53:32.247Z,4.60
2017-12-29T00:55:59.740Z,5.60
2017-12-29T00:58:29.203Z,2.90
2017-12-29T01:00:56.688Z,2.07
2017-12-29T01:03:24.216Z,2.33
2017-12-29T01:05:52.648Z,6.33
2017-12-29T01:08:20.927Z,6.43
2017-12-29T01:10:49.179Z,3.77
2017-12-29T01:13:16.693Z,2.07
2017-12-29T01:15:44.185Z,4.67
2017-12-29T01:18:12.227Z,3.13
2017-12-29T01:20:39.765Z,1.90
2017-12-29T01:23:09.392Z,2.80
2017-12-29T01:25:36.896Z,2.10
2017-12-29T01:28:04.664Z,3.33
2017-12-29T01:30:33.156Z,2.23
2017-12-29T01:33:01.980Z,6.63
2017-12-29T01:35:29.844Z,2.50
2017-12-29T01:37:57.709Z,4.03
2017-12-29T01:40:25.617Z,3.70
2017-12-29T01:42:54.157Z,2.20
2017-12-29T01:45:21.920Z,2.97
2017-12-29T01:47:56.344Z,2.57
2017-12-29T01:50:24.410Z,3.07
2017-12-29T01:52:53.197Z,2.80
2017-12-29T01:55:20.963Z,2.10
2017-12-29T01:57:48.722Z,1.80
2017-12-29T02:00:16.485Z,1.87
2017-12-29T02:02:44.275Z,5.30
2017-12-29T02:05:13.763Z,2.93
2017-12-29T02:07:41.428Z,2.53
2017-12-29T02:10:09.175Z,3.80
2017-12-29T02:12:36.697Z,2.00
2017-12-29T02:15:05.113Z,2.07
2017-12-29T02:17:32.873Z,2.43
2017-12-29T02:20:00.595Z,3.10
2017-12-29T02:22:28.454Z,1.97
2017-12-29T02:24:57.288Z,4.33
2017-12-29T02:27:25.155Z,4.90
2017-12-29T02:29:52.720Z,3.30
2017-12-29T02:32:20.212Z,3.67
2017-12-29T02:34:47.709Z,4.40
2017-12-29T02:37:17.160Z,6.50
2017-12-29T02:39:44.661Z,2.53
2017-12-29T02:42:12.941Z,2.37
2017-12-29T02:44:41.373Z,4.20
2017-12-29T02:47:08.897Z,2.37
2017-12-29T02:49:36.395Z,1.87
2017-12-29T02:52:03.917Z,3.93
2017-12-29T02:54:31.410Z,4.10
2017-12-29T02:56:58.901Z,2.73
2017-12-29T02:59:26.421Z,3.20
2017-12-29T03:01:53.926Z,1.87
2017-12-29T03:04:21.451Z,2.03
2017-12-29T03:06:49.725Z,2.37
2017-12-29T03:09:18.015Z,1.80
2017-12-29T03:11:47.172Z,3.33
2017-12-29T03:14:14.693Z,3.40
2017-12-29T03:16:42.180Z,1.50
2017-12-29T03:19:10.616Z,1.93
2017-12-29T03:21:38.133Z,3.13
2017-12-29T03:24:05.638Z,2.53
2017-12-29T03:26:33.149Z,2.00
2017-12-29T03:29:00.641Z,3.00
2017-12-29T03:31:28.162Z,2.63
2017-12-29T03:33:55.665Z,3.20
2017-12-29T03:36:23.161Z,2.10
2017-12-29T03:38:50.678Z,1.60
2017-12-29T03:41:18.177Z,1.70
2017-12-29T03:43:45.704Z,1.90
2017-12-29T03:46:13.192Z,1.83
2017-12-29T03:48:40.710Z,3.07
2017-12-29T03:51:08.205Z,1.83
2017-12-29T03:53:35.696Z,1.53
2017-12-29T03:56:03.975Z,4.60
2017-12-29T03:58:32.244Z,1.70
2017-12-29T04:01:01.467Z,1.83
2017-12-29T04:03:28.961Z,2.03
2017-12-29T04:05:56.477Z,2.73
2017-12-29T04:08:23.964Z,1.63
2017-12-29T04:10:51.489Z,2.00
2017-12-29T04:13:18.985Z,2.30
2017-12-29T04:15:46.506Z,3.77
2017-12-29T04:18:14.001Z,2.20
2017-12-29T04:20:41.501Z,1.90
2017-12-29T04:23:09.793Z,1.60
2017-12-29T04:25:37.281Z,2.47
2017-12-29T04:28:04.801Z,1.80
2017-12-29T04:30:32.297Z,1.83
2017-12-29T04:32:59.821Z,1.93
2017-12-29T04:35:28.281Z,1.70
2017-12-29T04:37:56.556Z,1.63
2017-12-29T04:40:24.814Z,2.00
2017-12-29T04:42:53.836Z,1.70
2017-12-29T04:45:21.329Z,2.17
2017-12-29T04:47:48.832Z,1.57
2017-12-29T04:50:17.112Z,1.50
2017-12-29T04:52:45.374Z,1.60
2017-12-29T04:55:12.885Z,2.23
2017-12-29T04:57:41.561Z,2.10
2017-12-29T05:00:09.076Z,2.37
2017-12-29T05:02:38.246Z,2.10
2017-12-29T05:05:05.757Z,1.70
2017-12-29T05:07:33.248Z,1.67
2017-12-29T05:10:00.745Z,1.80
2017-12-29T05:12:29.030Z,1.50
2017-12-29T05:14:57.284Z,1.80
2017-12-29T05:17:25.564Z,1.43
2017-12-29T05:19:53.833Z,1.83
2017-12-29T05:22:21.349Z,2.47
2017-12-29T05:24:48.844Z,1.77
2017-12-29T05:27:17.133Z,2.60
2017-12-29T05:29:45.406Z,2.70
2017-12-29T05:32:13.672Z,3.10
2017-12-29T05:34:44.692Z,1.77
2017-12-29T05:37:12.185Z,1.50
2017-12-29T05:39:40.493Z,2.23
2017-12-29T05:42:08.951Z,1.73
2017-12-29T05:44:37.233Z,1.57
2017-12-29T05:47:04.725Z,4.33
2017-12-29T05:49:32.279Z,2.03
2017-12-29T05:51:59.776Z,2.47
2017-12-29T05:54:27.288Z,2.70
2017-12-29T05:56:54.773Z,2.67
2017-12-29T05:59:22.277Z,1.80
2017-12-29T06:01:51.785Z,2.80
2017-12-29T06:04:19.282Z,1.70
2017-12-29T06:06:46.792Z,2.73
2017-12-29T06:09:14.284Z,1.73
2017-12-29T06:11:42.704Z,1.90
2017-12-29T06:14:10.982Z,1.73
2017-12-29T06:16:39.240Z,1.60
2017-12-29T06:19:07.525Z,1.73
2017-12-29T06:21:35.789Z,1.90
2017-12-29T06:24:03.281Z,2.30
2017-12-29T06:26:30.797Z,2.03
2017-12-29T06:28:58.288Z,1.57
2017-12-29T06:31:26.574Z,1.57
2017-12-29T06:33:54.073Z,2.73
2017-12-29T06:36:21.581Z,1.57
2017-12-29T06:38:49.074Z,1.60
2017-12-29T06:41:16.561Z,1.30
2017-12-29T06:43:44.076Z,1.90
2017-12-29T06:46:11.574Z,1.87
2017-12-29T06:48:41.804Z,1.80
2017-12-29T06:51:10.057Z,3.10
2017-12-29T06:53:37.577Z,1.60
2017-12-29T06:56:06.021Z,2.80
2017-12-29T06:58:34.300Z,1.50
2017-12-29T07:01:02.559Z,1.60
2017-12-29T07:03:30.821Z,2.33
2017-12-29T07:05:58.346Z,1.70
2017-12-29T07:08:25.837Z,1.30
2017-12-29T07:10:53.356Z,2.17
2017-12-29T07:13:20.845Z,1.73
2017-12-29T07:15:48.370Z,1.43
2017-12-29T07:18:15.864Z,1.60
2017-12-29T07:20:45.341Z,1.60
2017-12-29T07:23:12.832Z,2.17
2017-12-29T07:25:41.116Z,1.40
2017-12-29T07:28:09.380Z,1.70
2017-12-29T07:30:36.883Z,1.50
2017-12-29T07:33:04.405Z,1.40
2017-12-29T07:35:31.891Z,1.40
2017-12-29T07:37:59.413Z,1.80
2017-12-29T07:40:27.668Z,1.40
2017-12-29T07:42:55.180Z,1.80
2017-12-29T07:45:22.673Z,1.50
2017-12-29T07:47:50.188Z,2.03
2017-12-29T07:50:17.688Z,1.77
2017-12-29T07:52:45.176Z,1.60
2017-12-29T07:55:13.487Z,1.80
2017-12-29T07:57:40.984Z,1.87
2017-12-29T08:00:08.509Z,1.40
2017-12-29T08:02:36.001Z,1.60
2017-12-29T08:05:03.525Z,2.47
2017-12-29T08:07:31.959Z,1.50
2017-12-29T08:10:00.237Z,1.40
2017-12-29T08:12:28.496Z,2.23
2017-12-29T08:14:57.500Z,1.47
2017-12-29T08:17:26.956Z,1.90
2017-12-29T08:19:54.452Z,1.70
2017-12-29T08:22:25.412Z,1.60
2017-12-29T08:24:53.672Z,1.30
2017-12-29T08:27:21.949Z,1.80
2017-12-29T08:29:50.220Z,1.40
2017-12-29T08:32:18.513Z,1.60
2017-12-29T08:34:46.772Z,3.10
2017-12-29T08:37:15.028Z,2.33
2017-12-29T08:39:42.548Z,1.47
2017-12-29T08:42:10.045Z,2.60
2017-12-29T08:44:37.565Z,1.50
2017-12-29T08:47:05.064Z,1.57
2017-12-29T08:49:34.305Z,1.60
2017-12-29T08:52:01.796Z,1.37
2017-12-29T08:54:29.316Z,1.70
2017-12-29T08:56:56.812Z,1.67
2017-12-29T08:59:24.333Z,1.37
2017-12-29T09:01:51.833Z,1.40
2017-12-29T09:04:19.345Z,1.50
2017-12-29T09:06:46.861Z,1.83
2017-12-29T09:09:16.812Z,1.60
2017-12-29T09:11:44.333Z,2.20
2017-12-29T09:14:12.603Z,2.20
2017-12-29T09:16:40.121Z,1.63
2017-12-29T09:19:07.612Z,1.63
2017-12-29T09:21:35.138Z,2.23
2017-12-29T09:24:02.634Z,1.50
2017-12-29T09:26:30.148Z,3.00
2017-12-29T09:28:57.637Z,1.50
2017-12-29T09:31:26.041Z,2.90
2017-12-29T09:33:54.328Z,1.30
2017-12-29T09:36:22.586Z,2.67
2017-12-29T09:38:50.864Z,1.30
2017-12-29T09:41:19.121Z,1.70
2017-12-29T09:43:46.645Z,2.07
2017-12-29T09:46:14.137Z,1.50
2017-12-29T09:48:42.396Z,1.40
2017-12-29T09:51:09.913Z,1.60
2017-12-29T09:53:37.408Z,1.70
2017-12-29T09:56:04.932Z,2.37
2017-12-29T09:58:32.449Z,1.90
2017-12-29T10:00:59.945Z,1.63
2017-12-29T10:03:27.480Z,2.40
2017-12-29T10:05:55.746Z,3.57
2017-12-29T10:08:24.037Z,3.00
2017-12-29T10:10:51.530Z,2.40
2017-12-29T10:13:19.025Z,3.10
2017-12-29T10:15:47.304Z,2.00
2017-12-29T10:18:16.569Z,1.40
2017-12-29T10:20:44.110Z,1.70
2017-12-29T10:23:11.604Z,2.10
2017-12-29T10:25:39.111Z,3.03
2017-12-29T10:28:06.632Z,1.70
2017-12-29T10:30:34.890Z,1.37
2017-12-29T10:33:03.336Z,1.97
2017-12-29T10:35:30.852Z,2.00
2017-12-29T10:37:59.140Z,1.90
2017-12-29T10:40:26.640Z,1.90
2017-12-29T10:42:54.156Z,2.30
2017-12-29T10:45:21.657Z,4.80
2017-12-29T10:47:49.165Z,3.10
2017-12-29T10:50:16.708Z,2.00
2017-12-29T10:52:44.993Z,4.70
2017-12-29T10:55:12.512Z,1.67
2017-12-29T10:57:40.020Z,2.10
2017-12-29T11:00:07.520Z,4.10
2017-12-29T11:02:35.041Z,3.33
2017-12-29T11:05:02.533Z,2.10
2017-12-29T11:07:30.066Z,3.77
2017-12-29T11:09:57.555Z,2.40
2017-12-29T11:12:25.083Z,1.93
2017-12-29T11:14:53.517Z,1.77
2017-12-29T11:17:21.781Z,3.00
2017-12-29T11:19:50.060Z,3.50
2017-12-29T11:22:18.340Z,1.60
2017-12-29T11:24:46.613Z,1.60
2017-12-29T11:27:14.877Z,1.53
2017-12-29T11:29:44.736Z,2.60
2017-12-29T11:32:13.077Z,2.77
2017-12-29T11:34:41.696Z,1.70
2017-12-29T11:37:09.561Z,1.80
2017-12-29T11:39:37.426Z,1.57
2017-12-29T11:42:05.291Z,1.77
2017-12-29T11:44:34.796Z,7.30
2017-12-29T11:47:02.297Z,1.80
2017-12-29T11:49:29.830Z,2.57
2017-12-29T11:51:57.674Z,3.00
2017-12-29T11:54:25.540Z,1.60
2017-12-29T11:56:53.323Z,2.00
2017-12-29T11:59:21.113Z,3.40
2017-12-29T12:01:48.633Z,2.27
2017-12-29T12:04:16.410Z,1.70
2017-12-29T12:06:47.016Z,2.47
2017-12-29T12:09:14.832Z,3.30
2017-12-29T12:11:43.371Z,2.03
2017-12-29T12:14:11.249Z,1.90
2017-12-29T12:16:39.556Z,2.03
2017-12-29T12:19:07.069Z,1.70
2017-12-29T12:21:34.565Z,2.47
2017-12-29T12:24:02.082Z,1.70
2017-12-29T12:26:30.526Z,5.87
2017-12-29T12:28:58.801Z,1.73
2017-12-29T12:31:27.992Z,2.33
2017-12-29T12:33:56.314Z,3.70
2017-12-29T12:36:25.500Z,1.60
2017-12-29T12:38:53.021Z,3.93
2017-12-29T12:41:21.329Z,4.80
2017-12-29T12:43:49.772Z,13.23
2017-12-29T12:46:18.037Z,32.00
2017-12-29T12:48:46.330Z,37.10
2017-12-29T12:51:13.848Z,36.73
2017-12-29T12:53:41.372Z,30.70
2017-12-29T12:56:08.897Z,27.93
2017-12-29T12:58:37.168Z,24.20
2017-12-29T13:01:06.401Z,19.30
2017-12-29T13:03:33.925Z,16.40
2017-12-29T13:06:02.202Z,12.83
2017-12-29T13:08:30.490Z,25.73
2017-12-29T13:10:58.012Z,211.47
2017-12-29T13:13:25.568Z,176.40
2017-12-29T13:15:53.072Z,174.27
2017-12-29T13:18:20.596Z,170.27
2017-12-29T13:20:48.872Z,122.50
2017-12-29T13:23:16.397Z,127.87
2017-12-29T13:25:43.915Z,150.40
2017-12-29T13:28:11.421Z,134.83
2017-12-29T13:30:39.728Z,167.40
2017-12-29T13:33:08.002Z,134.23
2017-12-29T13:35:36.297Z,134.70
2017-12-29T13:38:03.805Z,120.77
2017-12-29T13:40:31.336Z,144.97
2017-12-29T13:42:58.857Z,102.23
2017-12-29T13:45:27.156Z,101.50
2017-12-29T13:47:54.661Z,98.27
2017-12-29T13:50:22.161Z,114.63
2017-12-29T13:52:49.681Z,92.43
2017-12-29T13:55:17.944Z,92.80
2017-12-29T13:57:47.022Z,85.47
2017-12-29T14:00:14.497Z,83.13
2017-12-29T14:02:42.021Z,92.90
2017-12-29T14:05:09.526Z,90.63
2017-12-29T14:07:39.012Z,78.97
2017-12-29T14:10:06.527Z,73.77
2017-12-29T14:12:34.041Z,56.27
2017-12-29T14:15:03.710Z,66.07
2017-12-29T14:17:31.213Z,53.53
2017-12-29T14:19:59.508Z,60.80
2017-12-29T14:22:27.004Z,64.30
2017-12-29T14:24:54.524Z,55.80
2017-12-29T14:27:22.025Z,60.80
2017-12-29T14:29:49.560Z,49.13
2017-12-29T14:32:17.060Z,58.57
2017-12-29T14:34:44.614Z,40.30
2017-12-29T14:37:12.101Z,41.70
2017-12-29T14:39:39.625Z,42.30
2017-12-29T14:42:07.130Z,44.17
2017-12-29T14:44:34.633Z,41.03
2017-12-29T14:47:02.161Z,34.00
2017-12-29T14:49:29.656Z,31.73
2017-12-29T14:51:57.180Z,39.13
2017-12-29T14:54:25.630Z,38.83
2017-12-29T14:56:54.113Z,30.03
2017-12-29T14:59:21.616Z,35.57
2017-12-29T15:01:49.152Z,27.97
2017-12-29T15:04:16.661Z,29.07
2017-12-29T15:06:44.965Z,27.90
2017-12-29T15:09:12.457Z,24.90
2017-12-29T15:11:39.983Z,31.37
2017-12-29T15:14:08.421Z,27.87
2017-12-29T15:16:36.685Z,30.90
2017-12-29T15:19:04.205Z,17.47
2017-12-29T15:21:31.702Z,26.70
2017-12-29T15:24:00.728Z,19.47
2017-12-29T15:26:28.229Z,19.40
2017-12-29T15:28:55.755Z,25.20
2017-12-29T15:31:23.257Z,23.67
2017-12-29T15:33:50.781Z,16.90
2017-12-29T15:36:18.276Z,15.17
2017-12-29T15:38:45.802Z,14.70
2017-12-29T15:41:13.309Z,18.37
2017-12-29T15:43:41.576Z,9.93
2017-12-29T15:46:09.856Z,20.30
2017-12-29T15:48:38.127Z,11.23
2017-12-29T15:51:05.649Z,15.40
2017-12-29T15:53:33.145Z,15.40
2017-12-29T15:56:01.432Z,10.60
2017-12-29T15:58:29.697Z,21.33
2017-12-29T16:01:10.104Z,15.60
2017-12-29T16:03:37.600Z,13.87
2017-12-29T16:06:05.909Z,13.33
2017-12-29T16:08:33.408Z,12.60
2017-12-29T16:11:00.945Z,13.13
2017-12-29T16:13:28.444Z,10.63
2017-12-29T16:15:55.945Z,13.33
2017-12-29T16:18:23.475Z,11.53
2017-12-29T16:20:51.744Z,10.80
2017-12-29T16:23:21.999Z,11.43
2017-12-29T16:25:49.496Z,17.53
2017-12-29T16:28:17.014Z,9.40
2017-12-29T16:30:44.512Z,10.70
2017-12-29T16:33:13.969Z,11.07
2017-12-29T16:35:41.456Z,8.17
2017-12-29T16:38:08.968Z,8.30
2017-12-29T16:40:37.226Z,12.10
2017-12-29T16:43:05.484Z,8.17
2017-12-29T16:45:33.012Z,11.47
2017-12-29T16:48:00.505Z,10.07
2017-12-29T16:50:29.528Z,7.20
2017-12-29T16:52:57.929Z,11.30
2017-12-29T16:55:25.442Z,9.07
2017-12-29T16:57:53.708Z,8.57
2017-12-29T17:00:22.728Z,6.30
2017-12-29T17:02:50.237Z,11.53
2017-12-29T17:05:17.756Z,8.10
2017-12-29T17:07:45.249Z,8.60
2017-12-29T17:10:12.749Z,9.43
2017-12-29T17:12:41.030Z,6.97
2017-12-29T17:15:08.543Z,8.87
2017-12-29T17:17:36.108Z,11.07
2017-12-29T17:20:03.597Z,5.73
2017-12-29T17:22:31.905Z,6.80
2017-12-29T17:24:59.406Z,9.27
2017-12-29T17:27:26.921Z,7.53
2017-12-29T17:29:54.416Z,5.03
2017-12-29T17:32:21.932Z,7.30
2017-12-29T17:34:49.425Z,4.30
2017-12-29T17:37:16.926Z,5.00
2017-12-29T17:39:44.458Z,8.20
2017-12-29T17:42:12.738Z,7.40
2017-12-29T17:44:41.032Z,6.87
2017-12-29T17:47:08.538Z,8.80
2017-12-29T17:49:36.065Z,7.97
2017-12-29T17:52:03.566Z,5.50
2017-12-29T17:54:31.852Z,5.70
2017-12-29T17:57:00.117Z,3.50
2017-12-29T17:59:28.548Z,4.57
2017-12-29T18:01:56.068Z,6.43
2017-12-29T18:04:24.328Z,7.00
2017-12-29T18:06:51.848Z,4.87
2017-12-29T18:09:19.341Z,4.80
2017-12-29T18:11:46.864Z,9.13
2017-12-29T18:14:14.370Z,3.70
2017-12-29T18:16:42.657Z,6.43
2017-12-29T18:19:10.152Z,3.40
2017-12-29T18:21:38.616Z,7.63
2017-12-29T18:24:06.136Z,3.77
2017-12-29T18:26:34.401Z,2.63
2017-12-29T18:29:02.685Z,6.77
2017-12-29T18:31:30.949Z,5.50
2017-12-29T18:33:58.465Z,5.53
2017-12-29T18:36:25.952Z,4.47
2017-12-29T18:38:53.479Z,5.13
2017-12-29T18:41:20.972Z,3.70
2017-12-29T18:43:48.497Z,7.70
2017-12-29T18:46:16.012Z,5.77
2017-12-29T18:48:44.277Z,5.07
2017-12-29T18:51:12.565Z,5.30
2017-12-29T18:53:40.090Z,8.13
2017-12-29T18:56:07.618Z,7.73
2017-12-29T18:58:35.125Z,10.90
2017-12-29T19:01:03.417Z,3.67
2017-12-29T19:03:30.917Z,4.20
2017-12-29T19:05:58.436Z,4.93
2017-12-29T19:08:25.933Z,5.60
2017-12-29T19:10:53.456Z,6.10
2017-12-29T19:13:20.972Z,4.23
2017-12-29T19:15:48.584Z,7.73
2017-12-29T19:18:16.108Z,4.80
2017-12-29T19:20:44.364Z,5.47
2017-12-29T19:23:13.833Z,7.13
2017-12-29T19:25:41.329Z,5.97
2017-12-29T19:28:09.593Z,6.07
2017-12-29T19:30:37.112Z,4.73
2017-12-29T19:33:04.605Z,6.50
2017-12-29T19:35:32.125Z,5.13
2017-12-29T19:37:59.617Z,6.17
2017-12-29T19:40:27.133Z,3.07
2017-12-29T19:42:54.633Z,4.50
2017-12-29T19:45:22.153Z,4.20
2017-12-29T19:47:49.649Z,7.13
2017-12-29T19:50:17.172Z,2.90
2017-12-29T19:52:44.803Z,4.10
2017-12-29T19:55:12.468Z,5.83
2017-12-29T19:57:40.227Z,3.63
2017-12-29T20:00:08.007Z,2.97
2017-12-29T20:02:35.975Z,3.97
2017-12-29T20:05:03.676Z,3.07
2017-12-29T20:07:33.036Z,2.97
2017-12-29T20:10:00.800Z,5.63
2017-12-29T20:12:28.665Z,13.87
2017-12-29T20:14:56.459Z,10.17
2017-12-29T20:17:26.091Z,7.10
2017-12-29T20:19:54.624Z,7.07
2017-12-29T20:22:22.276Z,5.60
2017-12-29T20:24:50.040Z,4.27
2017-12-29T20:27:17.861Z,3.63
2017-12-29T20:29:46.691Z,4.80
2017-12-29T20:32:14.253Z,4.13
2017-12-29T20:34:41.768Z,8.67
2017-12-29T20:37:10.034Z,5.23
2017-12-29T20:39:38.298Z,4.00
2017-12-29T20:42:05.820Z,3.77
2017-12-29T20:44:33.316Z,3.57
2017-12-29T20:47:00.837Z,6.13
2017-12-29T20:49:28.328Z,4.13
2017-12-29T20:51:55.849Z,3.20
2017-12-29T20:54:24.537Z,3.27
2017-12-29T20:56:53.313Z,4.00
2017-12-29T20:59:21.178Z,2.67
2017-12-29T21:01:50.698Z,3.10
2017-12-29T21:04:18.216Z,2.77
2017-12-29T21:06:45.732Z,2.73
2017-12-29T21:09:13.225Z,3.30
2017-12-29T21:11:41.509Z,3.23
2017-12-29T21:14:09.983Z,5.63
2017-12-29T21:16:38.251Z,3.10
2017-12-29T21:19:06.537Z,6.17
2017-12-29T21:21:34.028Z,3.83
2017-12-29T21:24:01.545Z,3.60
2017-12-29T21:26:29.813Z,3.10
2017-12-29T21:28:58.100Z,3.10
2017-12-29T21:31:26.361Z,2.30
2017-12-29T21:33:54.964Z,5.67
2017-12-29T21:36:22.461Z,3.70
2017-12-29T21:38:49.952Z,4.50
2017-12-29T21:41:18.241Z,2.63
2017-12-29T21:43:45.745Z,3.27
2017-12-29T21:46:13.264Z,2.70
2017-12-29T21:48:40.756Z,2.60
2017-12-29T21:51:08.281Z,2.90
2017-12-29T21:53:37.613Z,1.90
2017-12-29T21:56:05.189Z,2.70
2017-12-29T21:58:33.838Z,1.90
2017-12-29T22:01:01.519Z,2.07
2017-12-29T22:03:29.261Z,3.47
2017-12-29T22:05:57.024Z,2.73
2017-12-29T22:08:24.889Z,3.00
2017-12-29T22:10:52.856Z,5.60
2017-12-29T22:13:20.380Z,1.60
2017-12-29T22:15:48.908Z,3.70
2017-12-29T22:18:17.342Z,3.63
2017-12-29T22:20:45.601Z,2.77
2017-12-29T22:23:14.037Z,2.03
2017-12-29T22:25:41.552Z,2.23
2017-12-29T22:28:09.833Z,3.50
2017-12-29T22:30:38.096Z,2.40
2017-12-29T22:33:07.313Z,3.10
2017-12-29T22:35:35.761Z,2.73
2017-12-29T22:38:03.269Z,2.87
2017-12-29T22:40:30.800Z,2.07
2017-12-29T22:42:58.302Z,2.63
2017-12-29T22:45:25.800Z,2.07
2017-12-29T22:47:54.088Z,2.70
2017-12-29T22:50:21.613Z,2.10
2017-12-29T22:52:49.137Z,2.60
2017-12-29T22:55:17.408Z,2.97
2017-12-29T22:57:45.209Z,4.07
2017-12-29T23:00:13.031Z,2.43
2017-12-29T23:02:41.920Z,2.47
2017-12-29T23:05:09.487Z,8.50
2017-12-29T23:07:36.976Z,2.17
2017-12-29T23:10:04.505Z,4.13
2017-12-29T23:12:32.002Z,2.57
2017-12-29T23:15:00.276Z,4.63
2017-12-29T23:17:29.292Z,5.93
2017-12-29T23:19:57.556Z,4.03
2017-12-29T23:22:25.842Z,5.07
2017-12-29T23:24:54.129Z,3.20
2017-12-29T23:27:21.624Z,4.70
2017-12-29T23:29:49.150Z,2.60
2017-12-29T23:32:17.592Z,5.87
2017-12-29T23:34:45.882Z,1.90
2017-12-29T23:37:14.150Z,2.23
2017-12-29T23:39:42.438Z,2.73
2017-12-29T23:42:10.700Z,2.40
2017-12-29T23:44:38.957Z,2.00
2017-12-29T23:47:06.476Z,4.33
2017-12-29T23:49:35.231Z,3.33
2017-12-29T23:52:03.016Z,2.53
2017-12-29T23:54:31.802Z,2.47
2017-12-29T23:56:59.673Z,1.70
2017-12-29T23:59:27.193Z,2.00
